createdAt,value
2018-10-17T00:01:18.276Z,11.20
2018-10-17T00:03:46.481Z,11.30
2018-10-17T00:06:13.983Z,11.10
2018-10-17T00:08:42.091Z,11.10
2018-10-17T00:11:10.287Z,11.30
2018-10-17T00:13:38.753Z,11.10
2018-10-17T00:16:06.822Z,11.30
2018-10-17T00:18:34.067Z,11.10
2018-10-17T00:21:02.100Z,11.10
2018-10-17T00:23:30.367Z,11.00
2018-10-17T00:25:58.558Z,11.20
2018-10-17T00:28:26.402Z,11.40
2018-10-17T00:30:57.272Z,11.50
2018-10-17T00:33:24.531Z,11.60
2018-10-17T00:35:51.092Z,11.50
2018-10-17T00:38:17.656Z,11.70
2018-10-17T00:40:44.158Z,11.60
2018-10-17T00:43:10.823Z,11.60
2018-10-17T00:45:37.591Z,11.70
2018-10-17T00:48:04.888Z,11.80
2018-10-17T00:50:31.483Z,12.00
2018-10-17T00:52:58.153Z,12.20
2018-10-17T00:55:25.140Z,12.10
2018-10-17T00:57:51.737Z,11.90
2018-10-17T01:00:18.286Z,11.70
2018-10-17T01:02:44.871Z,11.40
2018-10-17T01:05:11.459Z,11.50
2018-10-17T01:07:38.175Z,11.60
2018-10-17T01:10:04.766Z,11.50
2018-10-17T01:12:31.287Z,11.50
2018-10-17T01:14:57.898Z,11.70
2018-10-17T01:17:24.478Z,11.70
2018-10-17T01:19:50.986Z,11.70
2018-10-17T01:22:17.574Z,11.80
2018-10-17T01:24:45.463Z,12.00
2018-10-17T01:27:12.074Z,12.20
2018-10-17T01:29:38.661Z,12.40
2018-10-17T01:32:05.182Z,12.20
2018-10-17T01:34:31.808Z,12.10
2018-10-17T01:36:58.317Z,12.00
2018-10-17T01:39:24.967Z,12.10
2018-10-17T01:41:51.492Z,12.20
2018-10-17T01:44:18.027Z,12.30
2018-10-17T01:46:44.523Z,12.30
2018-10-17T01:49:11.117Z,12.30
2018-10-17T01:51:37.810Z,12.50
2018-10-17T01:54:04.340Z,12.40
2018-10-17T01:56:31.256Z,12.60
2018-10-17T01:58:57.980Z,12.60
2018-10-17T02:01:24.599Z,12.30
2018-10-17T02:03:51.154Z,12.20
2018-10-17T02:06:17.740Z,12.50
2018-10-17T02:08:44.176Z,12.20
2018-10-17T02:11:11.247Z,12.00
2018-10-17T02:13:38.602Z,12.00
2018-10-17T02:16:05.115Z,11.90
2018-10-17T02:18:31.692Z,11.90
2018-10-17T02:20:58.577Z,11.90
2018-10-17T02:23:25.037Z,12.00
2018-10-17T02:25:51.553Z,11.80
2018-10-17T02:28:18.160Z,11.80
2018-10-17T02:30:44.653Z,12.10
2018-10-17T02:33:12.244Z,12.10
2018-10-17T02:35:38.744Z,12.30
2018-10-17T02:38:05.265Z,12.30
2018-10-17T02:40:31.728Z,12.10
2018-10-17T02:42:58.262Z,11.90
2018-10-17T02:45:24.866Z,11.90
2018-10-17T02:47:51.329Z,11.70
2018-10-17T02:50:17.848Z,11.40
2018-10-17T02:52:44.370Z,11.50
2018-10-17T02:55:11.858Z,11.30
2018-10-17T02:57:38.571Z,11.20
2018-10-17T03:00:05.123Z,11.30
2018-10-17T03:02:31.618Z,11.30
2018-10-17T03:04:58.172Z,11.00
2018-10-17T03:07:24.650Z,11.10
2018-10-17T03:09:51.193Z,11.20
2018-10-17T03:14:49.768Z,11.80
2018-10-17T03:17:17.514Z,11.80
2018-10-17T03:19:47.612Z,11.50
2018-10-17T03:24:46.578Z,11.80
2018-10-17T03:27:14.895Z,11.60
2018-10-17T03:29:43.272Z,11.30
2018-10-17T03:32:13.256Z,11.40
2018-10-17T03:34:41.586Z,11.60
2018-10-17T03:37:09.882Z,11.60
2018-10-17T03:39:37.445Z,11.60
2018-10-17T03:42:04.945Z,11.90
2018-10-17T03:44:33.557Z,12.00
2018-10-17T03:47:00.603Z,11.90
2018-10-17T03:49:28.018Z,11.80
2018-10-17T03:51:55.568Z,11.80
2018-10-17T03:54:23.608Z,11.80
2018-10-17T03:56:52.127Z,11.80
2018-10-17T03:59:19.543Z,11.70
2018-10-17T04:01:47.090Z,11.80
2018-10-17T04:04:13.985Z,11.60
2018-10-17T04:06:40.440Z,11.60
2018-10-17T04:09:08.299Z,11.50
2018-10-17T04:11:36.131Z,11.60
2018-10-17T04:14:03.879Z,11.90
2018-10-17T04:16:31.255Z,12.00
2018-10-17T04:19:00.136Z,11.70
2018-10-17T04:21:27.548Z,11.60
2018-10-17T04:23:56.179Z,11.50
2018-10-17T04:26:24.140Z,11.50
2018-10-17T04:28:50.661Z,11.50
2018-10-17T04:31:19.901Z,11.40
2018-10-17T04:33:46.816Z,11.60
2018-10-17T04:36:15.068Z,11.70
2018-10-17T04:41:19.012Z,11.50
2018-10-17T04:43:47.368Z,11.40
2018-10-17T04:46:14.494Z,11.50
2018-10-17T04:48:41.235Z,11.70
2018-10-17T04:51:08.746Z,11.50
2018-10-17T04:53:39.338Z,11.40
2018-10-17T04:56:06.988Z,11.70
2018-10-17T04:58:34.593Z,11.70
2018-10-17T05:01:02.007Z,11.60
2018-10-17T05:03:28.641Z,11.70
2018-10-17T05:05:56.096Z,11.60
2018-10-17T05:10:57.139Z,11.60
2018-10-17T05:13:23.727Z,11.70
2018-10-17T05:15:50.644Z,11.90
2018-10-17T05:23:25.578Z,12.00
2018-10-17T05:25:52.247Z,11.50
2018-10-17T05:28:21.162Z,11.30
2018-10-17T05:30:49.863Z,11.20
2018-10-17T05:33:18.122Z,11.30
2018-10-17T05:35:45.400Z,11.30
2018-10-17T05:38:13.726Z,11.20
2018-10-17T05:40:41.216Z,11.50
2018-10-17T05:43:09.854Z,11.80
2018-10-17T05:45:36.424Z,12.00
2018-10-17T05:48:03.688Z,12.10
2018-10-17T05:50:31.438Z,12.10
2018-10-17T05:52:58.691Z,12.20
2018-10-17T05:55:27.703Z,12.40
2018-10-17T05:57:55.363Z,12.50
2018-10-17T06:00:23.544Z,12.40
2018-10-17T06:02:52.141Z,12.30
2018-10-17T06:05:20.562Z,12.30
2018-10-17T06:07:49.178Z,12.40
2018-10-17T06:10:17.221Z,12.50
2018-10-17T06:12:45.524Z,12.50
2018-10-17T06:15:13.241Z,12.40
2018-10-17T06:17:40.167Z,12.40
2018-10-17T06:20:08.090Z,12.40
2018-10-17T06:22:35.577Z,12.60
2018-10-17T06:27:34.652Z,12.60
2018-10-17T06:30:03.904Z,12.80
2018-10-17T06:32:31.041Z,12.70
2018-10-17T06:34:57.857Z,12.90
2018-10-17T06:37:25.438Z,13.10
2018-10-17T06:39:53.213Z,13.00
2018-10-17T06:42:21.445Z,13.20
2018-10-17T06:44:49.286Z,13.10
2018-10-17T06:47:16.062Z,13.30
2018-10-17T06:49:44.386Z,13.50
2018-10-17T06:52:11.433Z,13.50
2018-10-17T06:54:39.172Z,13.40
2018-10-17T06:57:06.460Z,13.40
2018-10-17T06:59:33.043Z,13.70
2018-10-17T07:02:01.575Z,13.90
2018-10-17T07:04:28.525Z,13.80
2018-10-17T07:06:56.344Z,13.80
2018-10-17T07:09:24.567Z,13.80
2018-10-17T07:11:51.534Z,13.90
2018-10-17T07:14:23.527Z,14.00
2018-10-17T07:16:52.017Z,14.20
2018-10-17T07:19:19.806Z,14.30
2018-10-17T07:21:47.666Z,14.50
2018-10-17T07:24:15.343Z,14.70
2018-10-17T07:26:42.193Z,14.60
2018-10-17T07:29:08.875Z,14.70
2018-10-17T07:31:36.285Z,14.70
2018-10-17T07:34:02.966Z,14.80
2018-10-17T07:36:30.194Z,15.00
2018-10-17T07:38:58.143Z,14.60
2018-10-17T07:41:25.122Z,14.40
2018-10-17T07:43:52.292Z,14.30
2018-10-17T07:46:20.341Z,14.40
2018-10-17T07:48:49.034Z,14.70
2018-10-17T07:51:16.234Z,14.80
2018-10-17T07:53:43.353Z,14.90
2018-10-17T07:56:11.897Z,14.90
2018-10-17T07:58:41.496Z,14.90
2018-10-17T08:01:11.792Z,15.10
2018-10-17T08:03:39.786Z,15.30
2018-10-17T08:06:09.621Z,15.20
2018-10-17T08:08:37.429Z,15.40
2018-10-17T08:13:37.979Z,15.40
2018-10-17T08:16:04.449Z,15.40
2018-10-17T08:18:32.860Z,15.60
2018-10-17T08:21:01.197Z,15.80
2018-10-17T08:23:30.481Z,15.90
2018-10-17T08:25:59.687Z,15.80
2018-10-17T08:28:29.344Z,15.70
2018-10-17T08:33:30.474Z,15.90
2018-10-17T08:35:59.054Z,16.20
2018-10-17T08:38:30.327Z,15.60
2018-10-17T08:40:58.261Z,15.40
2018-10-17T08:43:27.993Z,15.30
2018-10-17T08:45:55.791Z,15.60
2018-10-17T08:48:24.095Z,15.70
2018-10-17T08:50:59.333Z,15.60
2018-10-17T08:53:27.582Z,15.60
2018-10-17T08:55:55.185Z,15.70
2018-10-17T08:58:23.205Z,15.90
2018-10-17T09:00:51.273Z,16.20
2018-10-17T09:03:19.874Z,16.50
2018-10-17T09:05:49.205Z,16.70
2018-10-17T09:08:15.856Z,16.80
2018-10-17T09:10:44.104Z,17.00
2018-10-17T09:13:12.007Z,17.10
2018-10-17T09:18:14.412Z,17.00
2018-10-17T09:20:42.424Z,16.90
2018-10-17T09:23:11.277Z,17.00
2018-10-17T09:25:41.658Z,17.20
2018-10-17T09:28:11.887Z,17.30
2018-10-17T09:30:39.548Z,17.20
2018-10-17T09:33:08.546Z,17.30
2018-10-17T09:35:36.182Z,17.70
2018-10-17T09:38:04.476Z,17.70
2018-10-17T09:40:32.382Z,17.50
2018-10-17T09:43:03.695Z,17.50
2018-10-17T09:45:31.903Z,17.40
2018-10-17T09:48:00.334Z,17.40
2018-10-17T09:50:29.293Z,17.10
2018-10-17T09:52:56.876Z,17.00
2018-10-17T09:55:24.150Z,17.30
2018-10-17T09:57:51.928Z,17.40
2018-10-17T10:00:19.731Z,16.90
2018-10-17T10:02:47.258Z,17.30
2018-10-17T10:05:15.017Z,17.40
2018-10-17T10:07:42.517Z,17.50
2018-10-17T10:10:10.179Z,17.80
2018-10-17T10:12:39.201Z,17.90
2018-10-17T10:15:06.659Z,17.60
2018-10-17T10:17:34.872Z,17.50
2018-10-17T10:20:02.742Z,17.40
2018-10-17T10:22:30.531Z,17.60
2018-10-17T10:24:59.179Z,17.60
2018-10-17T10:27:26.973Z,17.90
2018-10-17T10:29:56.109Z,17.80
2018-10-17T10:32:24.560Z,17.80
2018-10-17T10:34:52.630Z,17.70
2018-10-17T10:37:19.503Z,17.90
2018-10-17T10:39:46.328Z,17.80
2018-10-17T10:42:14.820Z,18.10
2018-10-17T10:44:43.583Z,17.80
2018-10-17T10:47:13.278Z,17.70
2018-10-17T10:49:41.566Z,17.70
2018-10-17T10:52:10.162Z,17.50
2018-10-17T10:54:38.704Z,17.50
2018-10-17T10:57:07.386Z,17.60
2018-10-17T10:59:36.186Z,17.60
2018-10-17T11:02:04.409Z,17.80
2018-10-17T11:04:32.978Z,17.80
2018-10-17T11:07:02.712Z,17.50
2018-10-17T11:09:31.285Z,17.30
2018-10-17T11:11:58.725Z,17.20
2018-10-17T11:14:26.274Z,17.00
2018-10-17T11:16:53.981Z,17.40
2018-10-17T11:19:21.357Z,18.00
2018-10-17T11:21:49.928Z,18.40
2018-10-17T11:24:18.751Z,18.20
2018-10-17T11:29:19.400Z,18.20
2018-10-17T11:31:47.330Z,18.50
2018-10-17T11:34:15.936Z,18.20
2018-10-17T11:39:20.389Z,18.60
2018-10-17T11:41:48.738Z,18.60
2018-10-17T11:44:17.221Z,18.80
2018-10-17T11:46:45.032Z,18.40
2018-10-17T11:49:11.882Z,18.70
2018-10-17T11:51:40.140Z,18.70
2018-10-17T11:54:08.057Z,18.90
2018-10-17T11:56:36.902Z,19.00
2018-10-17T11:59:04.621Z,19.10
2018-10-17T12:01:32.264Z,18.90
2018-10-17T12:03:59.681Z,18.70
2018-10-17T12:06:27.223Z,18.80
2018-10-17T12:08:56.228Z,18.70
2018-10-17T12:11:27.516Z,18.70
2018-10-17T12:13:55.104Z,19.10
2018-10-17T12:16:22.710Z,19.30
2018-10-17T12:21:23.005Z,18.80
2018-10-17T12:23:51.662Z,18.70
2018-10-17T12:26:20.180Z,18.70
2018-10-17T12:28:47.555Z,18.70
2018-10-17T12:31:15.867Z,18.80
2018-10-17T12:33:43.475Z,19.30
2018-10-17T12:36:11.980Z,19.40
2018-10-17T12:38:40.041Z,19.40
2018-10-17T12:41:07.714Z,19.40
2018-10-17T12:43:36.939Z,19.50
2018-10-17T12:46:04.080Z,19.60
2018-10-17T12:48:32.481Z,19.60
2018-10-17T12:51:00.623Z,19.70
2018-10-17T12:53:27.207Z,19.90
2018-10-17T12:55:55.834Z,20.00
2018-10-17T12:58:22.915Z,20.00
2018-10-17T13:00:51.629Z,19.60
2018-10-17T13:03:20.121Z,19.70
2018-10-17T13:05:47.554Z,20.00
2018-10-17T13:10:47.673Z,20.20
2018-10-17T13:13:14.959Z,20.20
2018-10-17T13:15:45.455Z,20.10
2018-10-17T13:18:14.706Z,20.00
2018-10-17T13:20:42.040Z,19.90
2018-10-17T13:23:09.477Z,19.70
2018-10-17T13:25:37.454Z,19.50
2018-10-17T13:28:04.635Z,19.30
2018-10-17T13:30:31.755Z,19.30
2018-10-17T13:35:32.940Z,19.30
2018-10-17T13:38:06.061Z,19.60
2018-10-17T13:40:33.067Z,19.60
2018-10-17T13:43:02.394Z,19.60
2018-10-17T13:45:29.922Z,19.60
2018-10-17T13:50:29.449Z,19.20
2018-10-17T13:52:57.814Z,19.50
2018-10-17T13:55:24.793Z,19.80
2018-10-17T14:00:27.576Z,19.80
2018-10-17T14:02:55.901Z,20.00
2018-10-17T14:05:23.564Z,20.00
2018-10-17T14:07:51.635Z,19.80
2018-10-17T14:10:20.122Z,20.00
2018-10-17T14:12:47.569Z,20.00
2018-10-17T14:15:15.709Z,19.80
2018-10-17T14:17:42.811Z,19.80
2018-10-17T14:20:10.493Z,19.90
2018-10-17T14:22:38.254Z,19.90
2018-10-17T14:25:06.916Z,20.00
2018-10-17T14:27:35.334Z,19.90
2018-10-17T14:30:02.886Z,20.00
2018-10-17T14:32:31.251Z,20.10
2018-10-17T14:34:58.626Z,19.80
2018-10-17T14:37:26.527Z,19.90
2018-10-17T14:39:55.410Z,19.90
2018-10-17T14:42:23.346Z,19.70
2018-10-17T14:44:50.212Z,19.60
2018-10-17T14:47:17.249Z,19.70
2018-10-17T14:49:44.152Z,19.60
2018-10-17T14:52:11.859Z,19.60
2018-10-17T14:54:40.885Z,19.40
2018-10-17T14:57:09.299Z,19.50
2018-10-17T15:02:08.944Z,19.20
2018-10-17T15:04:37.668Z,19.00
2018-10-17T15:07:04.960Z,19.30
2018-10-17T15:09:32.507Z,19.50
2018-10-17T15:12:00.933Z,19.50
2018-10-17T15:14:30.982Z,19.30
2018-10-17T15:16:58.431Z,19.30
2018-10-17T15:19:26.459Z,19.30
2018-10-17T15:21:54.205Z,19.10
2018-10-17T15:29:27.869Z,19.00
2018-10-17T15:31:54.921Z,18.70
2018-10-17T15:34:22.134Z,18.90
2018-10-17T15:36:48.772Z,18.90
2018-10-17T15:39:16.101Z,18.90
2018-10-17T15:41:43.455Z,19.10
2018-10-17T15:44:11.896Z,19.10
2018-10-17T15:46:39.092Z,19.20
2018-10-17T15:49:09.270Z,19.10
2018-10-17T15:51:37.029Z,18.90
2018-10-17T15:54:04.916Z,18.90
2018-10-17T15:56:32.351Z,18.80
2018-10-17T15:59:06.146Z,18.70
2018-10-17T16:01:35.817Z,18.80
2018-10-17T16:04:03.283Z,18.70
2018-10-17T16:06:33.953Z,18.70
2018-10-17T16:11:34.050Z,18.70
2018-10-17T16:14:02.867Z,18.70
2018-10-17T16:16:31.666Z,18.70
2018-10-17T16:18:59.492Z,18.60
2018-10-17T16:21:29.098Z,18.50
2018-10-17T16:23:57.484Z,18.30
2018-10-17T16:26:24.068Z,18.10
2018-10-17T16:28:50.555Z,18.20
2018-10-17T16:31:18.343Z,18.40
2018-10-17T16:33:45.573Z,18.20
2018-10-17T16:36:13.760Z,18.30
2018-10-17T16:38:43.245Z,18.40
2018-10-17T16:41:11.220Z,18.30
2018-10-17T16:43:39.416Z,18.10
2018-10-17T16:46:07.608Z,18.00
2018-10-17T16:48:34.156Z,18.00
2018-10-17T16:51:02.558Z,17.90
2018-10-17T16:53:30.404Z,18.00
2018-10-17T16:55:57.591Z,18.10
2018-10-17T16:58:25.010Z,18.00
2018-10-17T17:00:53.151Z,17.60
2018-10-17T17:03:20.492Z,17.40
2018-10-17T17:05:47.645Z,17.60
2018-10-17T17:08:14.753Z,17.00
2018-10-17T17:10:44.879Z,16.90
2018-10-17T17:13:12.741Z,17.20
2018-10-17T17:15:40.001Z,17.30
2018-10-17T17:20:38.792Z,16.90
2018-10-17T17:23:06.527Z,16.90
2018-10-17T17:25:34.287Z,16.70
2018-10-17T17:28:01.370Z,17.20
2018-10-17T17:30:28.531Z,17.30
2018-10-17T17:32:57.604Z,17.20
2018-10-17T17:35:27.787Z,17.10
2018-10-17T17:37:54.497Z,17.20
2018-10-17T17:40:22.065Z,17.30
2018-10-17T17:42:49.873Z,17.40
2018-10-17T17:45:18.008Z,17.30
2018-10-17T17:47:45.129Z,17.20
2018-10-17T17:52:44.067Z,17.50
2018-10-17T17:55:12.398Z,17.50
2018-10-17T17:57:39.036Z,17.50
2018-10-17T18:02:42.390Z,17.30
2018-10-17T18:05:10.863Z,17.10
2018-10-17T18:07:37.597Z,17.20
2018-10-17T18:10:07.529Z,17.00
2018-10-17T18:12:36.093Z,16.90
2018-10-17T18:15:04.319Z,16.90
2018-10-17T18:17:32.186Z,16.90
2018-10-17T18:20:00.049Z,16.90
2018-10-17T18:22:29.512Z,16.90
2018-10-17T18:24:57.907Z,16.60
2018-10-17T18:27:25.002Z,16.70
2018-10-17T18:29:53.242Z,16.80
2018-10-17T18:32:22.411Z,16.90
2018-10-17T18:34:49.853Z,16.90
2018-10-17T18:37:17.654Z,17.20
2018-10-17T18:39:45.832Z,17.20
2018-10-17T18:42:13.873Z,17.20
2018-10-17T18:44:43.616Z,17.20
2018-10-17T18:47:10.359Z,17.10
2018-10-17T18:49:38.925Z,16.90
2018-10-17T18:52:09.519Z,16.60
2018-10-17T18:54:39.847Z,16.60
2018-10-17T18:57:10.029Z,16.60
2018-10-17T18:59:39.948Z,16.50
2018-10-17T19:02:07.796Z,16.60
2018-10-17T19:04:35.801Z,16.40
2018-10-17T19:07:03.064Z,16.40
2018-10-17T19:09:32.663Z,16.40
2018-10-17T19:12:00.008Z,16.00
2018-10-17T19:14:27.500Z,16.40
2018-10-17T19:16:54.010Z,16.50
2018-10-17T19:19:22.667Z,16.60
2018-10-17T19:21:49.149Z,16.40
2018-10-17T19:24:15.684Z,16.30
2018-10-17T19:26:42.155Z,16.40
2018-10-17T19:29:08.803Z,16.40
2018-10-17T19:31:35.333Z,16.20
2018-10-17T19:34:01.820Z,15.60
2018-10-17T19:36:28.329Z,15.70
2018-10-17T19:38:56.263Z,15.80
2018-10-17T19:41:23.049Z,16.10
2018-10-17T19:43:50.000Z,16.30
2018-10-17T19:46:16.611Z,16.60
2018-10-17T19:48:43.056Z,16.40
2018-10-17T19:51:09.501Z,16.10
2018-10-17T19:53:36.181Z,16.20
2018-10-17T19:56:02.830Z,15.90
2018-10-17T19:58:29.328Z,16.10
2018-10-17T20:00:56.008Z,16.10
2018-10-17T20:03:22.518Z,16.10
2018-10-17T20:05:49.010Z,16.30
2018-10-17T20:10:48.246Z,16.60
2018-10-17T20:13:14.771Z,16.40
2018-10-17T20:15:41.235Z,16.00
2018-10-17T20:18:08.014Z,16.10
2018-10-17T20:20:34.550Z,16.20
2018-10-17T20:23:01.417Z,15.90
2018-10-17T20:25:29.015Z,16.10
2018-10-17T20:27:55.531Z,16.30
2018-10-17T20:30:22.024Z,16.40
2018-10-17T20:32:48.498Z,16.40
2018-10-17T20:35:15.097Z,16.40
2018-10-17T20:37:41.698Z,16.30
2018-10-17T20:40:12.023Z,16.40
2018-10-17T20:42:38.491Z,16.40
2018-10-17T20:45:05.006Z,16.20
2018-10-17T20:47:31.568Z,16.30
2018-10-17T20:49:58.230Z,16.20
2018-10-17T20:52:24.953Z,16.40
2018-10-17T20:54:51.693Z,16.30
2018-10-17T20:57:18.167Z,16.30
2018-10-17T20:59:44.694Z,16.30
2018-10-17T21:02:11.216Z,16.10
2018-10-17T21:04:38.900Z,16.20
2018-10-17T21:07:05.336Z,16.00
2018-10-17T21:09:31.835Z,15.90
2018-10-17T21:11:58.313Z,16.10
2018-10-17T21:14:24.836Z,15.90
2018-10-17T21:16:51.377Z,16.00
2018-10-17T21:19:17.858Z,16.00
2018-10-17T21:21:44.328Z,15.70
2018-10-17T21:24:10.895Z,15.70
2018-10-17T21:26:37.441Z,15.80
2018-10-17T21:29:04.136Z,15.80
2018-10-17T21:31:30.675Z,15.20
2018-10-17T21:33:57.313Z,15.00
2018-10-17T21:36:23.795Z,15.30
2018-10-17T21:38:50.288Z,15.50
2018-10-17T21:41:16.836Z,15.60
2018-10-17T21:43:43.884Z,15.70
2018-10-17T21:46:10.465Z,15.60
2018-10-17T21:48:36.944Z,15.60
2018-10-17T21:51:04.586Z,15.60
2018-10-17T21:53:31.108Z,15.70
2018-10-17T21:55:57.627Z,15.90
2018-10-17T21:58:24.228Z,15.50
2018-10-17T22:00:51.163Z,15.60
2018-10-17T22:03:17.742Z,15.90
2018-10-17T22:05:44.277Z,15.90
2018-10-17T22:08:12.422Z,15.90
2018-10-17T22:10:39.184Z,16.00
2018-10-17T22:13:05.850Z,16.10
2018-10-17T22:15:32.361Z,16.10
2018-10-17T22:17:58.947Z,15.90
2018-10-17T22:20:25.460Z,16.20
2018-10-17T22:22:52.074Z,16.20
2018-10-17T22:25:18.537Z,16.20
2018-10-17T22:27:45.012Z,16.10
2018-10-17T22:30:12.513Z,15.70
2018-10-17T22:32:38.994Z,15.50
2018-10-17T22:35:05.528Z,15.60
2018-10-17T22:40:05.087Z,15.90
2018-10-17T22:42:31.553Z,15.80
2018-10-17T22:44:58.095Z,15.50
2018-10-17T22:47:24.678Z,15.60
2018-10-17T22:49:51.382Z,15.50
2018-10-17T22:52:18.423Z,15.60
2018-10-17T22:54:45.035Z,15.50
2018-10-17T22:57:12.314Z,15.80
2018-10-17T22:59:38.781Z,15.80
2018-10-17T23:02:05.362Z,15.50
2018-10-17T23:04:31.916Z,15.40
2018-10-17T23:06:58.425Z,15.30
2018-10-17T23:09:25.020Z,15.50
2018-10-17T23:11:51.500Z,15.60
2018-10-17T23:14:18.045Z,15.80
2018-10-17T23:16:44.783Z,15.80
2018-10-17T23:19:11.380Z,15.80
2018-10-17T23:21:37.877Z,15.60
2018-10-17T23:24:04.371Z,15.20
2018-10-17T23:26:31.270Z,15.00
2018-10-17T23:28:57.809Z,15.10
2018-10-17T23:31:24.335Z,15.30
2018-10-17T23:33:50.789Z,15.30
2018-10-17T23:36:17.354Z,15.30
2018-10-17T23:38:44.759Z,15.40
2018-10-17T23:41:11.284Z,15.50
2018-10-17T23:43:37.749Z,15.70
2018-10-17T23:46:04.308Z,15.70
2018-10-17T23:48:30.862Z,15.60
2018-10-17T23:50:57.311Z,15.60
2018-10-17T23:53:23.837Z,15.80
2018-10-17T23:55:50.329Z,15.80
2018-10-17T23:58:17.217Z,15.90
